Time;durP1;ratioP1;P1;durP2;ratioP2;P2;SDS_P1;SDS_P2;PMS_P1;PMS_P2;Temp;Humidity;BMP_temperature;BMP_pressure;BME280_temperature;BME280_humidity;BME280_pressure;Samples;Min_cycle;Max_cycle;Signal;HPM_P1;HPM_P2
2021/03/17 00:00:16;;;;;;;19.35;13.05;;;;;;;4.55;76.25;100277.53;4987275;28;20044;-71
2021/03/17 00:02:41;;;;;;;19.95;12.80;;;;;;;4.54;75.56;100272.38;5020158;28;20173;-70
2021/03/17 00:05:07;;;;;;;21.38;14.02;;;;;;;4.56;75.82;100268.00;4999611;28;20069;-70
2021/03/17 00:07:33;;;;;;;20.48;14.38;;;;;;;4.57;76.05;100269.69;5005562;28;20045;-71
2021/03/17 00:09:59;;;;;;;20.27;12.40;;;;;;;4.56;75.40;100271.47;4988491;28;20049;-71
2021/03/17 00:12:24;;;;;;;19.65;14.38;;;;;;;4.59;75.19;100276.63;4996934;28;20496;-71
2021/03/17 00:14:50;;;;;;;21.02;13.90;;;;;;;4.57;75.16;100270.56;5005539;28;20038;-70
2021/03/17 00:17:15;;;;;;;20.30;13.52;;;;;;;4.52;75.19;100269.78;5006987;28;20052;-71
2021/03/17 00:19:40;;;;;;;22.40;14.88;;;;;;;4.51;75.59;100270.66;5007160;28;20026;-71
2021/03/17 00:22:07;;;;;;;25.05;16.55;;;;;;;4.52;76.66;100270.63;5006835;28;20038;-71
2021/03/17 00:24:35;;;;;;;25.08;15.48;;;;;;;4.51;76.65;100279.38;5007229;28;20132;-71
2021/03/17 00:27:00;;;;;;;29.67;16.90;;;;;;;4.47;76.14;100272.47;5005858;28;20064;-71
2021/03/17 00:29:25;;;;;;;28.65;16.17;;;;;;;4.49;76.15;100277.66;5006567;28;20037;-70
2021/03/17 00:31:51;;;;;;;24.38;15.73;;;;;;;4.51;76.50;100281.97;5006992;28;20095;-70
2021/03/17 00:34:16;;;;;;;29.67;18.52;;;;;;;4.50;76.99;100290.69;5007064;28;20582;-72
2021/03/17 00:36:41;;;;;;;26.75;16.88;;;;;;;4.44;77.45;100296.00;5007331;28;20410;-71
2021/03/17 00:39:07;;;;;;;35.53;19.27;;;;;;;4.45;77.63;100302.94;5006706;28;20065;-70
2021/03/17 00:41:32;;;;;;;23.45;15.38;;;;;;;4.50;77.78;100306.38;5008725;28;20046;-71
2021/03/17 00:43:57;;;;;;;24.58;16.75;;;;;;;4.53;77.90;100300.22;5005252;28;20038;-71
2021/03/17 00:46:23;;;;;;;24.30;15.57;;;;;;;4.52;77.74;100304.56;5006532;28;20041;-71
2021/03/17 00:48:48;;;;;;;25.38;17.02;;;;;;;4.55;77.62;100308.88;5005927;28;20572;-71
2021/03/17 00:51:14;;;;;;;31.65;18.20;;;;;;;4.60;77.47;100317.50;5007039;28;20494;-71
2021/03/17 00:53:39;;;;;;;30.65;18.75;;;;;;;4.61;77.52;100318.38;5006775;28;20034;-70
2021/03/17 00:56:05;;;;;;;25.40;16.63;;;;;;;4.61;77.69;100315.78;5020998;28;20033;-72
2021/03/17 00:58:30;;;;;;;25.15;16.73;;;;;;;4.57;77.58;100320.16;5006039;28;20405;-72
2021/03/17 01:00:55;;;;;;;32.40;20.23;;;;;;;4.62;77.83;100322.69;5004560;28;20073;-72
2021/03/17 01:03:20;;;;;;;29.55;19.45;;;;;;;4.57;77.68;100320.16;5006343;28;20069;-72
2021/03/17 01:05:46;;;;;;;38.67;23.90;;;;;;;4.51;78.17;100321.13;5004944;28;20041;-71
2021/03/17 01:08:13;;;;;;;32.58;20.30;;;;;;;4.51;78.45;100326.34;5018442;28;20540;-69
2021/03/17 01:10:43;;;;;;;32.83;21.38;;;;;;;4.55;78.84;100326.31;5025969;28;20037;-69
2021/03/17 01:13:08;;;;;;;31.85;20.73;;;;;;;4.57;78.29;100324.53;5008637;28;20452;-69
2021/03/17 01:15:34;;;;;;;29.25;19.70;;;;;;;4.62;78.80;100327.94;5006291;28;20157;-69
2021/03/17 01:18:00;;;;;;;30.15;18.73;;;;;;;4.63;78.64;100322.69;5005961;28;20042;-71
2021/03/17 01:20:27;;;;;;;32.60;19.98;;;;;;;4.63;79.05;100327.06;5005816;28;20038;-69
2021/03/17 01:22:54;;;;;;;28.95;20.00;;;;;;;4.61;78.43;100332.28;5006238;28;20042;-70
2021/03/17 01:25:29;;;;;;;30.60;22.48;;;;;;;4.64;78.33;100326.16;5006471;28;20061;-70
2021/03/17 01:27:55;;;;;;;36.03;21.80;;;;;;;4.52;78.56;100330.69;5006455;28;20093;-70
2021/03/17 01:30:28;;;;;;;30.67;20.02;;;;;;;4.52;79.15;100341.13;5012017;28;20460;-72
2021/03/17 01:32:54;;;;;;;34.55;20.85;;;;;;;4.49;79.00;100337.72;5012625;28;20038;-72
2021/03/17 01:35:20;;;;;;;27.60;18.33;;;;;;;4.50;78.63;100332.47;5014522;28;20044;-70
2021/03/17 01:37:45;;;;;;;24.80;17.08;;;;;;;4.60;78.59;100327.09;5011214;28;20054;-71
2021/03/17 01:40:12;;;;;;;24.33;16.63;;;;;;;4.58;78.25;100327.13;5009912;28;20091;-72
2021/03/17 01:42:38;;;;;;;24.88;16.80;;;;;;;4.58;78.17;100332.34;5009365;28;20493;-70
2021/03/17 01:45:13;;;;;;;22.55;15.25;;;;;;;4.56;78.07;100339.34;5009596;28;20127;-71
2021/03/17 01:47:39;;;;;;;21.45;14.43;;;;;;;4.55;78.25;100337.59;4996080;28;20057;-72
2021/03/17 01:50:09;;;;;;;28.02;17.02;;;;;;;4.55;78.33;100339.34;4989525;28;20050;-71
2021/03/17 01:52:35;;;;;;;22.48;15.35;;;;;;;4.56;78.56;100344.56;4989739;28;20039;-70
2021/03/17 01:55:00;;;;;;;21.98;15.00;;;;;;;4.60;78.53;100343.59;4988262;28;20323;-71
2021/03/17 01:57:26;;;;;;;22.52;14.10;;;;;;;4.64;78.52;100341.81;4990840;28;20057;-70
2021/03/17 01:59:51;;;;;;;29.23;15.65;;;;;;;4.60;78.19;100350.59;4999970;28;20109;-72
2021/03/17 02:02:17;;;;;;;21.45;13.98;;;;;;;4.59;78.53;100348.88;4984054;28;20029;-72
2021/03/17 02:04:43;;;;;;;22.48;14.32;;;;;;;4.59;78.27;100356.72;5009357;28;20038;-72
2021/03/17 02:07:08;;;;;;;18.63;13.65;;;;;;;4.48;78.46;100351.66;5008917;28;20423;-71
2021/03/17 02:09:34;;;;;;;23.92;15.75;;;;;;;4.48;78.52;100347.28;5008774;28;20121;-70
2021/03/17 02:12:17;;;;;;;22.23;14.80;;;;;;;4.46;78.40;100349.06;5009662;28;20522;-71
2021/03/17 02:15:01;;;;;;;19.13;12.82;;;;;;;4.51;78.61;100352.47;5008113;28;20050;-71
2021/03/17 02:17:27;;;;;;;19.45;13.13;;;;;;;4.56;78.39;100349.78;5008317;28;20529;-71
2021/03/17 02:20:16;;;;;;;18.20;12.20;;;;;;;4.64;78.51;100347.06;5008186;28;20037;-44
2021/03/17 02:23:21;;;;;;;16.13;12.30;;;;;;;4.88;77.32;100357.09;5017053;28;20127;-44
2021/03/17 02:26:14;;;;;;;19.08;13.15;;;;;;;5.27;75.08;100353.81;4974206;28;20505;-71
2021/03/17 02:28:57;;;;;;;20.67;13.90;;;;;;;5.10;75.23;100352.38;4992243;28;20096;-71
2021/03/17 02:31:33;;;;;;;17.08;12.02;;;;;;;4.85;75.96;100364.09;4993156;28;20029;-71
2021/03/17 02:34:10;;;;;;;18.05;13.43;;;;;;;4.66;77.13;100360.94;4998906;28;20629;-71
2021/03/17 02:36:42;;;;;;;13.63;11.20;;;;;;;4.67;77.92;100365.28;4992367;28;20054;-71
2021/03/17 02:39:12;;;;;;;19.23;14.25;;;;;;;4.66;77.40;100368.78;4991973;28;20125;-70
2021/03/17 02:41:47;;;;;;;14.80;10.93;;;;;;;4.66;77.15;100368.78;4992201;28;20071;-70
2021/03/17 02:44:17;;;;;;;15.63;11.93;;;;;;;4.64;77.68;100373.16;4992539;28;20101;-70
2021/03/17 02:46:45;;;;;;;15.48;11.63;;;;;;;4.54;77.52;100382.03;4985822;28;20125;-70
2021/03/17 02:49:19;;;;;;;14.10;11.27;;;;;;;4.52;77.24;100385.50;4969989;28;20496;-71
2021/03/17 02:51:49;;;;;;;15.10;11.27;;;;;;;4.55;77.65;100387.22;4973400;28;20066;-70
2021/03/17 02:54:17;;;;;;;16.50;10.48;;;;;;;4.49;77.40;100384.72;4973187;28;20038;-71
2021/03/17 02:56:48;;;;;;;16.13;10.98;;;;;;;4.47;77.64;100392.53;4973407;28;20047;-71
2021/03/17 02:59:16;;;;;;;14.75;10.77;;;;;;;4.42;77.80;100393.50;4971259;28;20404;-71
2021/03/17 03:01:42;;;;;;;16.98;11.15;;;;;;;4.32;78.08;100395.38;4972649;28;20042;-71
2021/03/17 03:04:09;;;;;;;13.27;10.05;;;;;;;4.34;77.75;100395.38;4971440;28;20053;-71
2021/03/17 03:06:37;;;;;;;14.32;10.98;;;;;;;4.33;77.82;100397.09;4970781;28;20035;-71
2021/03/17 03:09:05;;;;;;;17.33;13.07;;;;;;;4.38;78.35;100394.44;5014948;28;20030;-71
2021/03/17 03:11:31;;;;;;;15.50;12.48;;;;;;;4.38;78.13;100402.25;4994897;28;20482;-70
2021/03/17 03:13:57;;;;;;;19.23;15.10;;;;;;;4.31;78.08;100406.72;5020083;28;20064;-70
2021/03/17 03:16:23;;;;;;;19.30;15.38;;;;;;;4.31;78.67;100398.88;5011116;28;20030;-71
2021/03/17 03:18:51;;;;;;;19.45;15.50;;;;;;;4.33;77.72;100404.94;5011541;28;20121;-71
2021/03/17 03:21:20;;;;;;;17.90;14.75;;;;;;;4.31;78.26;100401.50;4991430;28;20042;-70
2021/03/17 03:23:48;;;;;;;18.08;13.10;;;;;;;4.27;78.07;100399.81;4994064;28;20038;-70
2021/03/17 03:26:17;;;;;;;13.70;10.48;;;;;;;4.27;77.58;100400.66;4991195;28;20038;-71
2021/03/17 03:28:43;;;;;;;15.38;10.98;;;;;;;4.23;77.65;100399.00;4991162;28;20030;-71
2021/03/17 03:31:08;;;;;;;12.80;10.18;;;;;;;4.22;77.77;100418.13;4991427;28;20054;-70
2021/03/17 03:33:34;;;;;;;12.88;10.52;;;;;;;4.19;77.61;100415.56;4991148;28;20039;-71
2021/03/17 03:35:59;;;;;;;11.27;8.15;;;;;;;4.16;77.62;100412.13;4989864;28;20030;-70
2021/03/17 03:38:25;;;;;;;10.82;8.38;;;;;;;4.15;77.71;100408.66;5022511;28;20485;-71
2021/03/17 03:40:51;;;;;;;9.85;7.45;;;;;;;4.14;77.24;100406.94;4991483;28;20041;-71
2021/03/17 03:43:16;;;;;;;12.40;8.20;;;;;;;4.17;77.09;100395.59;4994097;28;20057;-72
2021/03/17 03:45:42;;;;;;;8.68;6.78;;;;;;;4.13;77.00;100409.56;5009013;28;20405;-70
2021/03/17 03:48:08;;;;;;;9.10;7.05;;;;;;;4.09;76.88;100409.59;5011248;28;20516;-70
2021/03/17 03:50:40;;;;;;;8.93;6.53;;;;;;;4.08;76.79;100414.81;5010389;28;20524;-71
2021/03/17 03:53:33;;;;;;;9.88;6.88;;;;;;;4.10;76.90;100413.06;5010377;28;20038;-71
2021/03/17 03:56:42;;;;;;;12.15;6.50;;;;;;;4.10;77.03;100405.25;5010257;28;20052;-70
2021/03/17 03:59:12;;;;;;;13.75;8.15;;;;;;;4.08;77.53;100405.25;5000532;28;20033;-71
2021/03/17 04:01:44;;;;;;;8.57;6.60;;;;;;;4.05;77.24;100407.03;5010271;28;20038;-70
2021/03/17 04:04:13;;;;;;;9.27;7.43;;;;;;;4.09;77.93;100403.53;5042220;28;20034;-70
2021/03/17 04:06:41;;;;;;;13.45;8.73;;;;;;;4.15;77.61;100395.59;5009622;28;20042;-70
2021/03/17 04:09:09;;;;;;;11.50;6.82;;;;;;;4.16;76.79;100391.25;5001303;28;20033;-70
2021/03/17 04:11:38;;;;;;;9.60;7.28;;;;;;;4.14;77.15;100382.59;5011725;28;20033;-70
2021/03/17 04:14:06;;;;;;;9.35;6.78;;;;;;;4.09;77.04;100395.69;5029847;28;20083;-70
2021/03/17 04:16:33;;;;;;;8.23;6.35;;;;;;;4.11;76.84;100398.28;5029389;28;20041;-70
2021/03/17 04:19:01;;;;;;;7.72;6.18;;;;;;;4.05;76.89;100399.22;5029367;28;20041;-70
2021/03/17 04:21:29;;;;;;;6.13;5.00;;;;;;;4.01;76.80;100393.19;5000272;28;20042;-70
2021/03/17 04:23:58;;;;;;;7.30;5.80;;;;;;;4.01;76.90;100395.81;4997159;28;20034;-70
2021/03/17 04:26:26;;;;;;;8.77;6.82;;;;;;;4.04;77.21;100400.97;5009761;28;20040;-70
2021/03/17 04:28:54;;;;;;;9.23;7.72;;;;;;;4.08;77.24;100409.59;5010093;28;20034;-70
2021/03/17 04:31:20;;;;;;;12.02;6.88;;;;;;;4.07;77.31;100413.13;5009999;28;20116;-70
2021/03/17 04:33:46;;;;;;;9.30;7.63;;;;;;;4.07;77.03;100413.97;5008288;28;20108;-70
2021/03/17 04:36:13;;;;;;;10.23;8.18;;;;;;;4.03;77.92;100422.72;5009682;28;20184;-70
2021/03/17 04:38:40;;;;;;;8.32;6.53;;;;;;;3.98;77.73;100419.28;5009469;28;20140;-70
2021/03/17 04:41:06;;;;;;;9.90;7.25;;;;;;;3.99;77.94;100421.03;5009638;28;20489;-70
2021/03/17 04:43:35;;;;;;;8.40;7.07;;;;;;;4.00;77.92;100427.97;5009713;28;20113;-70
2021/03/17 04:46:02;;;;;;;11.85;9.88;;;;;;;4.01;77.60;100436.66;5024563;28;20122;-70
2021/03/17 04:48:28;;;;;;;12.80;9.38;;;;;;;3.98;77.94;100434.09;5009252;28;20065;-70
2021/03/17 04:50:55;;;;;;;9.05;7.00;;;;;;;3.93;78.16;100434.13;4986707;28;20051;-71
2021/03/17 04:53:21;;;;;;;11.65;8.35;;;;;;;3.94;78.09;100427.16;4995451;28;20440;-71
2021/03/17 04:55:47;;;;;;;10.30;7.45;;;;;;;3.96;78.65;100428.88;5021768;28;20116;-71
2021/03/17 04:58:17;;;;;;;14.18;7.70;;;;;;;4.00;78.30;100427.97;5030311;28;20121;-71
2021/03/17 05:00:46;;;;;;;11.95;9.68;;;;;;;4.01;78.47;100423.59;5018707;28;20038;-71
2021/03/17 05:03:14;;;;;;;10.43;7.28;;;;;;;3.99;78.67;100430.63;5026056;28;20091;-71
2021/03/17 05:05:41;;;;;;;13.50;9.95;;;;;;;3.86;78.83;100425.53;5029080;28;20030;-70
2021/03/17 05:08:08;;;;;;;9.98;7.32;;;;;;;3.88;79.10;100426.38;5018008;28;20511;-71
2021/03/17 05:10:36;;;;;;;12.02;8.35;;;;;;;3.84;79.09;100436.88;5009687;28;20093;-70
2021/03/17 05:13:02;;;;;;;9.50;7.72;;;;;;;3.88;79.65;100441.16;5026149;28;20121;-71
2021/03/17 05:15:27;;;;;;;11.88;9.13;;;;;;;3.91;79.31;100442.88;5033275;28;20482;-71
2021/03/17 05:17:53;;;;;;;9.40;7.57;;;;;;;3.92;78.92;100439.41;5033812;28;20042;-72
2021/03/17 05:20:23;;;;;;;8.95;6.57;;;;;;;3.89;79.33;100445.50;5033676;28;20047;-71
2021/03/17 05:22:50;;;;;;;14.05;8.38;;;;;;;3.96;79.31;100435.84;5033744;28;20511;-71
2021/03/17 05:25:19;;;;;;;9.98;7.93;;;;;;;3.96;79.02;100428.03;5032391;28;20033;-70
2021/03/17 05:27:53;;;;;;;12.90;7.32;;;;;;;4.01;78.62;100431.44;5032570;28;20460;-69
2021/03/17 05:30:20;;;;;;;9.30;6.75;;;;;;;3.97;78.90;100443.66;5026197;28;20443;-70
2021/03/17 05:32:47;;;;;;;9.27;7.68;;;;;;;4.01;78.36;100439.25;5013059;28;20096;-69
2021/03/17 05:35:14;;;;;;;11.27;8.90;;;;;;;3.99;78.46;100449.75;5037206;28;20032;-70
2021/03/17 05:37:40;;;;;;;12.02;9.63;;;;;;;3.97;78.49;100435.84;5031259;28;20038;-70
2021/03/17 05:40:11;;;;;;;14.95;11.73;;;;;;;3.94;78.87;100448.03;5028327;28;20029;-70
2021/03/17 05:42:39;;;;;;;13.15;10.73;;;;;;;3.95;78.98;100452.41;4993869;28;20061;-70
2021/03/17 05:45:07;;;;;;;15.95;11.80;;;;;;;3.99;79.09;100460.16;4992914;28;20398;-71
2021/03/17 05:47:33;;;;;;;15.30;11.68;;;;;;;3.98;78.81;100463.66;4992057;28;20038;-70
2021/03/17 05:49:59;;;;;;;11.73;8.85;;;;;;;3.88;78.97;100460.28;4992752;28;20084;-70
2021/03/17 05:52:25;;;;;;;9.98;7.88;;;;;;;3.89;79.44;100466.38;4993443;28;20038;-70
2021/03/17 05:54:51;;;;;;;11.02;8.23;;;;;;;3.86;79.09;100463.78;4993140;28;20035;-70
2021/03/17 05:57:17;;;;;;;13.10;9.90;;;;;;;3.87;79.39;100463.78;4993121;28;20042;-70
2021/03/17 05:59:42;;;;;;;10.82;9.43;;;;;;;3.81;79.01;100462.97;4993478;28;20548;-71
2021/03/17 06:02:09;;;;;;;7.82;6.07;;;;;;;3.80;79.29;100467.31;4993429;28;20030;-70
2021/03/17 06:04:38;;;;;;;8.00;6.38;;;;;;;3.85;78.96;100462.06;4992964;28;20034;-72
2021/03/17 06:07:10;;;;;;;9.93;6.47;;;;;;;3.86;78.96;100466.38;5006221;28;20453;-71
2021/03/17 06:09:36;;;;;;;11.70;6.03;;;;;;;3.87;79.14;100465.53;5012039;28;20045;-70
2021/03/17 06:12:07;;;;;;;6.78;5.32;;;;;;;3.90;79.03;100457.66;5011808;28;20049;-70
2021/03/17 06:14:34;;;;;;;9.20;7.85;;;;;;;3.96;79.13;100460.19;5010043;28;20041;-70
2021/03/17 06:17:05;;;;;;;10.57;8.73;;;;;;;4.02;79.09;100462.72;5011853;28;20042;-70
2021/03/17 06:19:33;;;;;;;14.95;7.88;;;;;;;3.97;78.98;100453.25;5010157;28;20041;-70
2021/03/17 06:21:59;;;;;;;12.70;8.07;;;;;;;4.01;79.42;100463.63;5027207;28;20088;-71
2021/03/17 06:24:26;;;;;;;9.20;7.85;;;;;;;4.04;79.20;100465.34;5012220;28;20050;-71
2021/03/17 06:26:52;;;;;;;22.75;11.45;;;;;;;3.95;79.00;100461.06;5011837;28;20037;-71
2021/03/17 06:29:17;;;;;;;13.57;9.35;;;;;;;3.93;79.00;100462.84;5011560;28;20029;-71
2021/03/17 06:31:45;;;;;;;10.15;7.80;;;;;;;3.96;78.76;100467.16;5011089;28;20038;-70
2021/03/17 06:34:10;;;;;;;14.95;10.50;;;;;;;3.96;79.30;100472.38;5011700;28;20393;-71
2021/03/17 06:36:47;;;;;;;16.15;10.35;;;;;;;3.92;78.71;100465.47;5011658;28;20037;-71
2021/03/17 06:39:13;;;;;;;18.23;11.23;;;;;;;3.90;79.11;100470.69;5011598;28;20149;-71
2021/03/17 06:41:50;;;;;;;23.10;12.15;;;;;;;3.92;79.69;100466.34;5011818;28;20493;-70
2021/03/17 06:44:33;;;;;;;14.02;10.10;;;;;;;3.99;79.94;100468.00;5011826;28;20425;-71
2021/03/17 06:47:15;;;;;;;17.75;11.10;;;;;;;3.99;79.34;100465.38;5011333;28;20048;-71
2021/03/17 06:49:43;;;;;;;17.75;11.15;;;;;;;4.02;79.55;100461.88;5012114;28;20041;-71
2021/03/17 06:52:27;;;;;;;19.98;12.73;;;;;;;4.00;79.22;100453.19;5012471;28;20041;-71
2021/03/17 06:55:23;;;;;;;44.88;14.30;;;;;;;3.94;79.43;100442.81;5009637;28;20029;-71
2021/03/17 06:57:53;;;;;;;16.25;8.80;;;;;;;4.00;79.58;100441.00;4982825;28;20125;-71
2021/03/17 07:00:26;;;;;;;11.73;9.68;;;;;;;4.09;80.04;100443.53;4991624;28;20058;-71
2021/03/17 07:03:00;;;;;;;24.20;10.98;;;;;;;4.17;79.59;100440.81;4991512;28;20398;-71
2021/03/17 07:05:46;;;;;;;22.23;12.55;;;;;;;4.21;79.29;100439.00;4991729;28;20039;-71
2021/03/17 07:08:13;;;;;;;13.30;9.43;;;;;;;4.25;79.58;100440.72;4992065;28;20093;-70
2021/03/17 07:10:44;;;;;;;12.77;10.45;;;;;;;4.31;79.16;100440.66;4991207;28;20038;-71
2021/03/17 07:13:13;;;;;;;16.77;13.63;;;;;;;4.26;78.89;100445.06;4991431;28;20026;-71
2021/03/17 07:15:39;;;;;;;13.85;10.63;;;;;;;4.25;79.32;100449.41;4991564;28;20039;-71
2021/03/17 07:18:34;;;;;;;16.70;10.18;;;;;;;4.25;79.42;100457.22;4991472;28;20050;-71
2021/03/17 07:21:05;;;;;;;13.68;10.45;;;;;;;4.27;79.07;100452.84;4963697;28;20034;-71
2021/03/17 07:23:45;;;;;;;13.40;10.60;;;;;;;4.24;79.38;100452.91;4991976;28;20048;-72
2021/03/17 07:26:14;;;;;;;15.52;10.95;;;;;;;4.17;79.54;100456.47;4991640;28;20088;-71
2021/03/17 07:28:50;;;;;;;15.48;11.07;;;;;;;4.22;79.95;100449.44;4992222;28;20494;-72
2021/03/17 07:31:21;;;;;;;;;;;;;;;4.23;80.08;100442.47;4991746;28;20093;-70
2021/03/17 07:33:47;;;;;;;16.50;11.35;;;;;;;4.19;80.27;100446.88;4991312;28;20270;-71
2021/03/17 07:36:30;;;;;;;12.88;10.45;;;;;;;4.25;80.46;100456.38;4990526;28;20034;-71
2021/03/17 07:38:58;;;;;;;16.13;11.73;;;;;;;4.23;80.17;100458.13;4971429;28;20042;-70
2021/03/17 07:41:24;;;;;;;16.27;12.68;;;;;;;4.26;80.34;100458.13;4971739;28;20100;-70
2021/03/17 07:43:53;;;;;;;18.98;14.68;;;;;;;4.29;80.25;100458.94;4971622;28;20116;-71
2021/03/17 07:46:22;;;;;;;15.73;11.95;;;;;;;4.30;80.21;100451.97;4970304;28;20162;-71
2021/03/17 07:48:49;;;;;;;17.27;13.43;;;;;;;4.34;80.56;100451.03;4971340;28;20062;-70
2021/03/17 07:51:17;;;;;;;19.45;14.45;;;;;;;4.32;80.35;100451.94;5010127;28;20165;-71
2021/03/17 07:53:44;;;;;;;14.15;11.40;;;;;;;4.34;80.31;100445.81;5010135;28;20037;-69
2021/03/17 07:56:10;;;;;;;12.40;10.38;;;;;;;4.41;80.36;100450.09;5010826;28;20117;-71
2021/03/17 07:58:40;;;;;;;24.10;14.05;;;;;;;4.41;79.25;100452.69;4994793;28;20043;-71
2021/03/17 08:01:06;;;;;;;15.02;11.25;;;;;;;4.40;80.37;100456.16;5014897;28;20087;-70
2021/03/17 08:03:31;;;;;;;16.75;11.80;;;;;;;4.48;80.26;100467.41;5020805;28;20045;-70
2021/03/17 08:05:57;;;;;;;30.35;14.70;;;;;;;4.50;80.07;100457.81;5030032;28;20050;-71
2021/03/17 08:08:24;;;;;;;28.52;11.85;;;;;;;4.53;80.32;100475.16;5029465;28;20497;-71
2021/03/17 08:10:50;;;;;;;18.05;11.13;;;;;;;4.56;79.84;100469.03;5029308;28;20045;-71
2021/03/17 08:13:16;;;;;;;10.45;8.98;;;;;;;4.55;79.42;100472.50;5029657;28;20055;-70
2021/03/17 08:15:44;;;;;;;11.98;8.70;;;;;;;4.52;79.80;100476.03;4999724;28;20112;-71
2021/03/17 08:18:27;;;;;;;14.50;9.93;;;;;;;4.57;79.93;100481.19;4988608;28;20061;-71
2021/03/17 08:20:53;;;;;;;13.32;10.57;;;;;;;4.62;79.93;100476.78;4990371;28;20110;-71
2021/03/17 08:23:39;;;;;;;15.18;10.75;;;;;;;4.65;80.24;100475.00;4990573;28;20123;-71
2021/03/17 08:26:31;;;;;;;17.77;12.48;;;;;;;4.61;80.07;100477.66;4990268;28;20137;-70
2021/03/17 08:28:57;;;;;;;14.25;10.88;;;;;;;4.63;80.25;100474.16;4978256;28;20045;-71
2021/03/17 08:31:37;;;;;;;14.48;9.93;;;;;;;4.59;80.81;100476.81;5009722;28;20391;-70
2021/03/17 08:34:18;;;;;;;16.90;10.00;;;;;;;4.54;80.75;100466.44;5009790;28;20038;-70
2021/03/17 08:36:43;;;;;;;13.35;9.55;;;;;;;4.56;80.58;100463.81;5013227;28;20042;-69
2021/03/17 08:39:09;;;;;;;11.57;9.15;;;;;;;4.59;80.46;100467.25;5011647;28;20030;-71
2021/03/17 08:41:42;;;;;;;16.80;11.18;;;;;;;4.72;80.35;100460.09;5010249;28;20119;-71
2021/03/17 08:44:10;;;;;;;11.55;8.55;;;;;;;4.91;80.00;100466.78;5010425;28;20049;-71
2021/03/17 08:46:37;;;;;;;11.30;8.93;;;;;;;5.03;79.29;100457.88;5011266;28;20117;-72
2021/03/17 08:49:07;;;;;;;11.38;9.63;;;;;;;5.06;78.80;100459.59;5013714;28;20113;-72
2021/03/17 08:51:44;;;;;;;12.25;9.15;;;;;;;5.06;79.45;100464.81;5029539;28;20034;-72
2021/03/17 08:54:45;;;;;;;12.63;8.85;;;;;;;5.10;78.70;100461.28;5014206;28;20177;-71
2021/03/17 08:57:15;;;;;;;14.63;10.35;;;;;;;5.09;78.13;100468.22;5012146;28;20038;-70
2021/03/17 08:59:42;;;;;;;13.30;9.77;;;;;;;5.03;77.69;100475.31;5013011;28;20042;-70
2021/03/17 09:02:20;;;;;;;10.35;7.97;;;;;;;5.07;78.48;100466.53;5013562;28;20508;-70
2021/03/17 09:04:48;;;;;;;10.50;8.88;;;;;;;5.11;77.84;100474.28;5013572;28;20046;-71
2021/03/17 09:07:13;;;;;;;11.77;10.07;;;;;;;5.19;77.92;100475.94;5013245;28;20034;-71
2021/03/17 09:09:51;;;;;;;15.40;9.10;;;;;;;5.27;77.00;100472.31;5013058;28;20091;-71
2021/03/17 09:12:36;;;;;;;10.40;8.15;;;;;;;5.47;76.26;100471.97;5012943;28;20112;-70
2021/03/17 09:15:17;;;;;;;12.15;9.30;;;;;;;5.50;76.17;100471.91;5011228;28;20041;-71
2021/03/17 09:17:46;;;;;;;11.30;9.23;;;;;;;5.43;76.85;100470.28;5013371;28;20052;-70
2021/03/17 09:20:14;;;;;;;10.90;7.72;;;;;;;5.51;76.84;100468.44;5012931;28;20448;-71
2021/03/17 09:22:49;;;;;;;12.95;9.50;;;;;;;5.57;76.70;100470.06;5013507;28;20037;-70
2021/03/17 09:25:19;;;;;;;9.63;8.18;;;;;;;5.55;76.45;100472.69;5013459;28;20030;-70
2021/03/17 09:27:52;;;;;;;28.63;8.15;;;;;;;5.48;77.23;100480.69;5013004;28;20124;-69
2021/03/17 09:30:20;;;;;;;14.02;7.65;;;;;;;5.35;77.53;100470.44;5013300;28;20440;-71
2021/03/17 09:32:46;;;;;;;8.93;6.40;;;;;;;5.44;76.76;100482.50;5013174;28;20034;-70
2021/03/17 09:35:12;;;;;;;10.02;7.95;;;;;;;5.44;76.62;100472.03;5012963;28;20440;-69
2021/03/17 09:37:38;;;;;;;9.88;7.90;;;;;;;5.59;76.65;100474.38;5012938;28;20069;-70
2021/03/17 09:40:06;;;;;;;10.07;7.47;;;;;;;5.76;75.32;100474.09;4994482;28;20030;-70
2021/03/17 09:42:38;;;;;;;7.43;5.65;;;;;;;5.81;74.76;100472.25;4993286;28;20113;-71
2021/03/17 09:45:08;;;;;;;6.72;5.55;;;;;;;5.86;74.31;100473.88;5007702;28;20509;-71
2021/03/17 09:47:34;;;;;;;8.38;5.40;;;;;;;5.91;74.17;100478.16;4992191;28;20525;-71
2021/03/17 09:49:59;;;;;;;9.98;6.03;;;;;;;5.89;74.16;100487.78;5027783;28;20033;-70
2021/03/17 09:52:25;;;;;;;7.28;6.07;;;;;;;5.72;74.50;100482.88;5012727;28;20380;-71
2021/03/17 09:54:50;;;;;;;14.77;5.25;;;;;;;5.55;74.38;100504.09;5012666;28;20042;-71
2021/03/17 09:57:16;;;;;;;5.20;3.42;;;;;;;5.13;72.30;100501.28;5012820;28;20030;-73
2021/03/17 09:59:44;;;;;;;4.53;3.28;;;;;;;4.89;72.24;100502.50;5000847;28;20044;-71
2021/03/17 10:02:24;;;;;;;5.78;3.10;;;;;;;5.00;73.19;100501.50;5007986;28;20622;-71
2021/03/17 10:04:52;;;;;;;4.68;2.75;;;;;;;5.24;72.98;100508.09;5012949;28;20072;-71
2021/03/17 10:07:22;;;;;;;4.15;2.75;;;;;;;5.29;71.78;100501.03;5011131;28;20042;-71
2021/03/17 10:09:48;;;;;;;4.70;2.85;;;;;;;5.21;71.78;100509.00;5012302;28;20030;-71
2021/03/17 10:12:30;;;;;;;3.70;2.60;;;;;;;5.27;70.87;100501.06;5011746;28;20042;-70
2021/03/17 10:14:57;;;;;;;4.25;1.98;;;;;;;5.36;70.86;100500.03;5012421;28;20224;-71
2021/03/17 10:17:25;;;;;;;6.40;3.72;;;;;;;5.32;70.22;100499.25;5012525;28;20044;-71
2021/03/17 10:19:56;;;;;;;12.90;4.47;;;;;;;5.43;69.59;100492.97;5013531;28;20554;-71
2021/03/17 10:22:23;;;;;;;9.35;2.55;;;;;;;5.49;70.77;100498.09;5012949;28;20063;-71
2021/03/17 10:24:51;;;;;;;3.92;2.45;;;;;;;5.37;69.61;100493.94;5012920;28;20129;-72
2021/03/17 10:27:24;;;;;;;3.47;2.10;;;;;;;5.23;70.76;100494.16;5008257;28;20100;-71
2021/03/17 10:29:52;;;;;;;4.88;2.22;;;;;;;5.28;70.33;100494.09;5006654;28;20628;-71
2021/03/17 10:32:20;;;;;;;6.82;2.00;;;;;;;5.24;68.33;100501.13;5013307;28;20040;-71
2021/03/17 10:34:46;;;;;;;5.75;2.42;;;;;;;5.24;68.42;100490.69;5012402;28;20422;-71
2021/03/17 10:37:13;;;;;;;2.70;1.90;;;;;;;5.42;68.62;100494.72;5012910;28;20128;-71
2021/03/17 10:39:39;;;;;;;5.40;2.17;;;;;;;5.45;67.93;100493.81;5012213;28;20069;-71
2021/03/17 10:42:17;;;;;;;8.90;3.63;;;;;;;5.62;69.04;100490.91;5012785;28;20056;-71
2021/03/17 10:44:43;;;;;;;5.63;2.35;;;;;;;5.72;68.37;100488.09;5012978;28;20045;-71
2021/03/17 10:47:10;;;;;;;5.90;2.00;;;;;;;6.05;66.95;100485.75;5025894;28;20501;-70
2021/03/17 10:49:46;;;;;;;5.50;2.42;;;;;;;6.30;64.23;100488.78;5009412;28;20512;-72
2021/03/17 10:52:12;;;;;;;47.35;12.05;;;;;;;6.09;64.22;100486.59;5019090;28;20107;-72
2021/03/17 10:54:43;;;;;;;4.80;2.38;;;;;;;6.23;64.77;100488.03;5023227;28;20033;-72
2021/03/17 10:57:17;;;;;;;2.80;2.00;;;;;;;6.91;62.80;100496.19;5003028;28;20061;-72
2021/03/17 10:59:43;;;;;;;6.75;3.22;;;;;;;6.82;64.80;100495.50;5020206;28;20142;-73
2021/03/17 11:02:24;;;;;;;4.85;1.92;;;;;;;7.02;64.54;100486.34;5015278;28;20496;-73
2021/03/17 11:05:01;;;;;;;6.00;2.60;;;;;;;7.07;63.06;100484.47;5021714;28;20037;-73
2021/03/17 11:07:27;;;;;;;6.95;2.17;;;;;;;6.94;63.32;100486.53;5014178;28;20054;-70
2021/03/17 11:09:52;;;;;;;4.13;1.90;;;;;;;6.85;64.69;100486.72;5023381;28;20041;-71
2021/03/17 11:12:18;;;;;;;5.00;1.83;;;;;;;6.79;65.33;100492.97;5031814;28;20176;-70
2021/03/17 11:14:43;;;;;;;4.65;2.08;;;;;;;6.79;62.57;100481.59;5031281;28;20038;-70
2021/03/17 11:17:09;;;;;;;3.72;2.13;;;;;;;6.80;62.45;100483.34;5031092;28;20420;-70
2021/03/17 11:19:35;;;;;;;4.82;1.98;;;;;;;6.68;63.52;100488.84;5030982;28;20045;-71
2021/03/17 11:22:00;;;;;;;3.53;2.10;;;;;;;6.52;63.58;100480.44;5031749;28;20033;-71
2021/03/17 11:24:26;;;;;;;4.13;2.10;;;;;;;6.38;65.13;100486.84;5046370;28;20057;-71
2021/03/17 11:26:52;;;;;;;4.80;2.65;;;;;;;6.24;64.16;100476.66;5030894;28;20033;-70
2021/03/17 11:29:23;;;;;;;7.07;2.50;;;;;;;6.09;65.02;100479.59;5030537;28;20037;-72
2021/03/17 11:31:53;;;;;;;5.05;2.75;;;;;;;6.13;65.21;100476.03;5030878;28;20037;-72
2021/03/17 11:34:19;;;;;;;5.03;2.97;;;;;;;6.43;66.44;100479.75;5030807;28;20460;-71